createdAt,value
2018-05-12T00:00:31.755Z,82.76
2018-05-12T00:01:31.778Z,82.57
2018-05-12T00:02:31.799Z,82.86
2018-05-12T00:03:31.821Z,82.76
2018-05-12T00:04:31.849Z,82.96
2018-05-12T00:05:31.869Z,82.96
2018-05-12T00:06:31.889Z,83.15
2018-05-12T00:07:31.916Z,82.48
2018-05-12T00:08:31.933Z,82.96
2018-05-12T00:09:31.957Z,82.96
2018-05-12T00:10:32.057Z,83.15
2018-05-12T00:11:32.000Z,83.25
2018-05-12T00:12:32.023Z,83.05
2018-05-12T00:13:32.044Z,83.34
2018-05-12T00:14:32.067Z,83.05
2018-05-12T00:15:32.089Z,83.44
2018-05-12T00:16:32.111Z,83.82
2018-05-12T00:17:32.134Z,83.82
2018-05-12T00:18:32.156Z,83.92
2018-05-12T00:19:32.178Z,83.92
2018-05-12T00:20:32.200Z,83.72
2018-05-12T00:21:32.223Z,83.72
2018-05-12T00:22:32.244Z,83.63
2018-05-12T00:23:32.270Z,84.01
2018-05-12T00:24:32.289Z,83.92
2018-05-12T00:25:32.312Z,84.11
2018-05-12T00:26:32.334Z,84.01
2018-05-12T00:27:32.435Z,84.01
2018-05-12T00:28:32.378Z,84.58
2018-05-12T00:29:32.401Z,84.78
2018-05-12T00:30:32.423Z,85.06
2018-05-12T00:31:32.445Z,84.58
2018-05-12T00:32:32.468Z,85.06
2018-05-12T00:33:32.489Z,84.68
2018-05-12T00:34:32.512Z,84.97
2018-05-12T00:35:32.533Z,85.16
2018-05-12T00:36:32.557Z,84.68
2018-05-12T00:37:32.580Z,85.06
2018-05-12T00:38:32.601Z,84.97
2018-05-12T00:39:32.622Z,85.06
2018-05-12T00:40:32.644Z,85.06
2018-05-12T00:41:32.668Z,85.06
2018-05-12T00:42:32.689Z,85.16
2018-05-12T00:43:32.711Z,84.97
2018-05-12T00:44:32.733Z,85.45
2018-05-12T00:45:32.757Z,85.16
2018-05-12T00:46:32.778Z,85.25
2018-05-12T00:47:32.799Z,85.35
2018-05-12T00:48:32.822Z,85.64
2018-05-12T00:49:32.845Z,85.25
2018-05-12T00:50:32.866Z,85.25
2018-05-12T00:51:32.888Z,84.97
2018-05-12T00:52:32.911Z,85.35
2018-05-12T00:53:32.933Z,85.64
2018-05-12T00:54:32.956Z,85.54
2018-05-12T00:55:32.977Z,85.64
2018-05-12T00:56:32.999Z,85.74
2018-05-12T00:57:33.021Z,86.02
2018-05-12T00:58:33.045Z,85.45
2018-05-12T00:59:33.067Z,85.74
2018-05-12T01:00:33.089Z,85.35
2018-05-12T01:01:33.110Z,85.64
2018-05-12T01:02:33.133Z,85.54
2018-05-12T01:03:33.155Z,85.64
2018-05-12T01:04:33.177Z,85.64
2018-05-12T01:05:33.199Z,85.54
2018-05-12T01:06:33.222Z,85.16
2018-05-12T01:07:33.243Z,85.74
2018-05-12T01:08:33.266Z,85.35
2018-05-12T01:09:33.289Z,85.54
2018-05-12T01:10:33.311Z,85.54
2018-05-12T01:11:33.332Z,85.45
2018-05-12T01:12:33.356Z,85.54
2018-05-12T01:13:33.379Z,85.35
2018-05-12T01:14:33.400Z,85.74
2018-05-12T01:15:33.421Z,85.93
2018-05-12T01:16:33.516Z,85.54
2018-05-12T01:17:33.466Z,86.02
2018-05-12T01:18:33.488Z,85.93
2018-05-12T01:19:33.510Z,86.02
2018-05-12T01:20:33.533Z,86.02
2018-05-12T01:21:33.556Z,86.60
2018-05-12T01:22:33.577Z,86.41
2018-05-12T01:23:33.602Z,86.31
2018-05-12T01:24:33.622Z,86.12
2018-05-12T01:25:33.643Z,86.41
2018-05-12T01:26:33.667Z,86.50
2018-05-12T01:27:33.689Z,86.60
2018-05-12T01:28:33.710Z,87.17
2018-05-12T01:29:33.738Z,87.17
2018-05-12T01:30:33.759Z,86.79
2018-05-12T01:31:33.777Z,86.88
2018-05-12T01:32:33.800Z,86.98
2018-05-12T01:33:33.821Z,87.74
2018-05-12T01:34:33.844Z,87.65
2018-05-12T01:35:33.866Z,87.27
2018-05-12T01:36:33.888Z,87.65
2018-05-12T01:37:33.911Z,87.74
2018-05-12T01:38:33.933Z,87.08
2018-05-12T01:39:33.957Z,87.65
2018-05-12T01:40:33.981Z,87.74
2018-05-12T01:41:33.998Z,87.37
2018-05-12T01:42:34.022Z,87.51
2018-05-12T01:43:34.042Z,87.46
2018-05-12T01:44:34.065Z,87.90
2018-05-12T01:45:34.087Z,87.70
2018-05-12T01:46:34.109Z,88.09
2018-05-12T01:47:34.132Z,88.37
2018-05-12T01:48:34.154Z,88.76
2018-05-12T01:49:34.177Z,88.47
2018-05-12T01:50:34.198Z,88.37
2018-05-12T01:51:34.219Z,89.14
2018-05-12T01:52:34.242Z,89.43
2018-05-12T01:53:34.264Z,89.52
2018-05-12T01:54:34.287Z,89.43
2018-05-12T01:55:34.308Z,89.14
2018-05-12T01:56:34.331Z,89.33
2018-05-12T01:57:34.353Z,89.23
2018-05-12T01:58:34.375Z,88.85
2018-05-12T01:59:34.396Z,88.76
2018-05-12T02:00:34.454Z,88.47
2018-05-12T02:01:34.441Z,88.95
2018-05-12T02:02:34.463Z,88.76
2018-05-12T02:03:34.485Z,88.76
2018-05-12T02:04:34.507Z,89.33
2018-05-12T02:05:34.529Z,88.95
2018-05-12T02:06:34.552Z,89.23
2018-05-12T02:07:34.574Z,90.09
2018-05-12T02:08:34.595Z,90.29
2018-05-12T02:09:34.617Z,90.09
2018-05-12T02:10:34.640Z,89.90
2018-05-12T02:11:34.661Z,90.09
2018-05-12T02:12:34.686Z,89.81
2018-05-12T02:13:34.709Z,90.19
2018-05-12T02:14:34.728Z,90.29
2018-05-12T02:15:34.750Z,90.09
2018-05-12T02:16:34.772Z,90.29
2018-05-12T02:17:34.794Z,90.29
2018-05-12T02:18:34.817Z,90.96
2018-05-12T02:19:34.838Z,90.77
2018-05-12T02:20:34.861Z,90.39
2018-05-12T02:21:34.883Z,90.09
2018-05-12T02:22:34.905Z,90.67
2018-05-12T02:23:34.930Z,90.00
2018-05-12T02:24:34.949Z,89.90
2018-05-12T02:25:34.972Z,89.81
2018-05-12T02:26:34.993Z,89.81
2018-05-12T02:27:35.015Z,89.81
2018-05-12T02:28:35.039Z,90.29
2018-05-12T02:29:35.060Z,90.48
2018-05-12T02:30:35.082Z,90.48
2018-05-12T02:31:35.103Z,90.96
2018-05-12T02:32:35.129Z,90.67
2018-05-12T02:33:35.148Z,90.48
2018-05-12T02:34:35.170Z,90.39
2018-05-12T02:35:35.192Z,90.29
2018-05-12T02:36:35.215Z,90.29
2018-05-12T02:37:35.237Z,90.67
2018-05-12T02:38:35.261Z,90.77
2018-05-12T02:39:35.281Z,90.48
2018-05-12T02:40:35.310Z,90.29
2018-05-12T02:41:35.336Z,90.29
2018-05-12T02:42:35.358Z,90.19
2018-05-12T02:43:35.369Z,90.29
2018-05-12T02:44:35.394Z,90.19
2018-05-12T02:45:35.415Z,90.00
2018-05-12T02:46:35.437Z,90.29
2018-05-12T02:47:35.458Z,90.67
2018-05-12T02:48:35.482Z,90.48
2018-05-12T02:49:35.503Z,90.48
2018-05-12T02:50:35.524Z,90.67
2018-05-12T02:51:35.546Z,90.96
2018-05-12T02:52:35.571Z,91.15
2018-05-12T02:53:35.597Z,90.86
2018-05-12T02:54:35.613Z,91.63
2018-05-12T02:55:35.639Z,91.72
2018-05-12T02:56:35.658Z,91.25
2018-05-12T02:57:35.683Z,91.82
2018-05-12T02:58:35.702Z,91.25
2018-05-12T02:59:35.723Z,92.01
2018-05-12T03:00:35.746Z,91.63
2018-05-12T03:01:35.768Z,92.01
2018-05-12T03:02:35.791Z,91.92
2018-05-12T03:03:35.813Z,92.21
2018-05-12T03:04:35.836Z,92.21
2018-05-12T03:05:35.860Z,92.44
2018-05-12T03:06:35.880Z,92.63
2018-05-12T03:07:35.901Z,92.54
2018-05-12T03:08:35.923Z,93.02
2018-05-12T03:09:35.946Z,92.92
2018-05-12T03:10:35.968Z,93.30
2018-05-12T03:11:35.989Z,93.59
2018-05-12T03:12:36.012Z,94.65
2018-05-12T03:13:36.034Z,94.26
2018-05-12T03:14:36.057Z,94.17
2018-05-12T03:15:36.130Z,94.36
2018-05-12T03:16:36.099Z,95.03
2018-05-12T03:17:36.121Z,95.36
2018-05-12T03:18:36.145Z,95.56
2018-05-12T03:19:36.169Z,95.22
2018-05-12T03:20:36.188Z,95.36
2018-05-12T03:21:36.209Z,95.65
2018-05-12T03:22:36.235Z,96.03
2018-05-12T03:23:36.255Z,96.51
2018-05-12T03:24:36.275Z,96.70
2018-05-12T03:25:36.298Z,96.13
2018-05-12T03:26:36.320Z,96.51
2018-05-12T03:27:36.341Z,96.89
2018-05-12T03:28:36.364Z,96.70
2018-05-12T03:29:36.385Z,98.04
2018-05-12T03:30:36.413Z,98.04
2018-05-12T03:31:36.430Z,98.33
2018-05-12T03:32:36.451Z,98.04
2018-05-12T03:33:36.558Z,98.71
2018-05-12T03:34:36.496Z,98.71
2018-05-12T03:35:36.517Z,99.19
2018-05-12T03:36:36.540Z,99.19
2018-05-12T03:37:36.561Z,99.10
2018-05-12T03:38:36.583Z,98.33
2018-05-12T03:39:36.604Z,99.19
2018-05-12T03:40:36.626Z,99.00
2018-05-12T03:41:36.650Z,99.00
2018-05-12T03:42:36.671Z,99.33
2018-05-12T03:43:36.692Z,99.10
2018-05-12T03:44:36.714Z,99.29
2018-05-12T03:45:36.739Z,99.43
2018-05-12T03:46:36.758Z,99.99
2018-05-12T03:47:36.779Z,99.99
2018-05-12T03:48:36.801Z,99.99
2018-05-12T03:49:36.823Z,99.99
2018-05-12T03:50:36.845Z,99.99
2018-05-12T03:51:36.867Z,99.99
2018-05-12T03:52:36.888Z,99.99
2018-05-12T03:53:36.910Z,99.99
2018-05-12T03:54:36.932Z,99.99
2018-05-12T03:55:37.203Z,99.99
2018-05-12T03:56:36.976Z,99.99
2018-05-12T03:57:37.001Z,99.99
2018-05-12T03:58:37.019Z,99.99
2018-05-12T03:59:37.040Z,99.99
2018-05-12T04:00:37.063Z,99.99
2018-05-12T04:01:37.085Z,99.99
2018-05-12T04:02:37.105Z,99.99
2018-05-12T04:03:37.129Z,99.99
2018-05-12T04:04:37.149Z,99.99
2018-05-12T04:05:37.175Z,99.99
2018-05-12T04:06:37.194Z,99.99
2018-05-12T04:07:37.214Z,99.99
2018-05-12T04:08:37.312Z,99.99
2018-05-12T04:09:37.258Z,99.99
2018-05-12T04:10:37.280Z,99.99
2018-05-12T04:11:37.302Z,99.99
2018-05-12T04:12:37.324Z,99.99
2018-05-12T04:13:37.344Z,99.99
2018-05-12T04:14:37.367Z,99.99
2018-05-12T04:15:37.387Z,99.99
2018-05-12T04:16:37.410Z,99.99
2018-05-12T04:17:37.433Z,99.99
2018-05-12T04:18:37.453Z,99.99
2018-05-12T04:19:37.474Z,99.99
2018-05-12T04:20:37.497Z,99.99
2018-05-12T04:21:37.519Z,99.99
2018-05-12T04:22:37.540Z,99.99
2018-05-12T04:23:37.565Z,99.99
2018-05-12T04:24:37.582Z,99.99
2018-05-12T04:25:37.604Z,99.99
2018-05-12T04:26:37.627Z,99.99
2018-05-12T04:27:37.648Z,99.99
2018-05-12T04:28:37.672Z,99.99
2018-05-12T04:29:37.693Z,99.99
2018-05-12T04:30:37.717Z,99.99
2018-05-12T04:31:37.735Z,99.99
2018-05-12T04:32:37.762Z,99.99
2018-05-12T04:33:37.778Z,99.99
2018-05-12T04:34:37.803Z,99.99
2018-05-12T04:35:37.822Z,99.99
2018-05-12T04:36:37.849Z,99.99
2018-05-12T04:37:37.865Z,99.99
2018-05-12T04:38:37.887Z,99.99
2018-05-12T04:39:37.908Z,99.99
2018-05-12T04:40:37.930Z,99.99
2018-05-12T04:41:37.953Z,99.76
2018-05-12T04:42:37.974Z,99.96
2018-05-12T04:43:37.995Z,99.38
2018-05-12T04:44:38.017Z,99.67
2018-05-12T04:45:38.039Z,99.29
2018-05-12T04:46:38.061Z,99.15
2018-05-12T04:47:38.082Z,99.19
2018-05-12T04:48:38.104Z,98.38
2018-05-12T04:49:38.126Z,98.95
2018-05-12T04:50:38.149Z,99.29
2018-05-12T04:51:38.169Z,99.24
2018-05-12T04:52:38.191Z,98.95
2018-05-12T04:53:38.213Z,99.15
2018-05-12T04:54:38.235Z,98.95
2018-05-12T04:55:38.257Z,98.57
2018-05-12T04:56:38.279Z,98.57
2018-05-12T04:57:38.301Z,98.57
2018-05-12T04:58:38.322Z,98.28
2018-05-12T04:59:38.343Z,98.09
2018-05-12T05:00:38.366Z,98.19
2018-05-12T05:01:38.388Z,97.33
2018-05-12T05:02:38.409Z,96.56
2018-05-12T05:03:38.432Z,96.37
2018-05-12T05:04:38.454Z,96.03
2018-05-12T05:05:38.482Z,94.89
2018-05-12T05:06:38.498Z,94.89
2018-05-12T05:07:38.518Z,94.40
2018-05-12T05:08:38.541Z,93.64
2018-05-12T05:09:38.563Z,94.12
2018-05-12T05:10:38.585Z,93.93
2018-05-12T05:11:38.606Z,94.69
2018-05-12T05:12:38.631Z,94.89
2018-05-12T05:13:38.656Z,95.07
2018-05-12T05:14:38.673Z,94.89
2018-05-12T05:15:38.694Z,95.46
2018-05-12T05:16:38.721Z,94.50
2018-05-12T05:17:38.740Z,94.79
2018-05-12T05:18:38.761Z,93.88
2018-05-12T05:19:38.785Z,92.15
2018-05-12T05:20:38.805Z,91.39
2018-05-12T05:21:38.828Z,90.53
2018-05-12T05:22:38.849Z,90.14
2018-05-12T05:23:38.872Z,90.19
2018-05-12T05:24:38.894Z,89.37
2018-05-12T05:28:21.525Z,88.27
2018-05-12T05:28:22.664Z,87.98
2018-05-12T05:29:22.685Z,87.79
2018-05-12T05:30:22.709Z,87.60
2018-05-12T05:31:22.734Z,86.78
2018-05-12T05:32:22.754Z,86.68
2018-05-12T05:33:22.776Z,86.97
2018-05-12T05:34:22.798Z,86.78
2018-05-12T05:35:22.824Z,86.30
2018-05-12T05:36:22.844Z,85.92
2018-05-12T05:37:22.867Z,85.34
2018-05-12T05:38:22.897Z,85.00
2018-05-12T05:39:22.913Z,84.23
2018-05-12T05:40:22.936Z,83.94
2018-05-12T05:41:22.959Z,84.14
2018-05-12T05:42:22.982Z,83.75
2018-05-12T05:43:23.004Z,83.41
2018-05-12T05:44:23.029Z,83.41
2018-05-12T05:45:23.053Z,81.97
2018-05-12T05:46:23.072Z,82.26
2018-05-12T05:47:23.101Z,81.78
2018-05-12T05:48:23.122Z,81.30
2018-05-12T05:49:23.145Z,81.78
2018-05-12T05:50:23.169Z,82.45
2018-05-12T05:51:23.192Z,81.59
2018-05-12T05:52:23.215Z,81.49
2018-05-12T05:53:23.239Z,81.68
2018-05-12T05:54:23.262Z,81.49
2018-05-12T05:55:23.287Z,80.66
2018-05-12T05:56:23.310Z,80.73
2018-05-12T05:57:23.335Z,81.01
2018-05-12T05:58:23.356Z,81.10
2018-05-12T05:59:23.481Z,80.76
2018-05-12T06:00:23.407Z,79.90
2018-05-12T06:01:23.429Z,79.61
2018-05-12T06:02:23.453Z,79.80
2018-05-12T06:03:23.478Z,79.03
2018-05-12T06:04:23.502Z,78.84
2018-05-12T06:05:23.525Z,80.24
2018-05-12T06:06:23.549Z,80.24
2018-05-12T06:07:23.577Z,80.57
2018-05-12T06:08:23.598Z,79.42
2018-05-12T06:09:23.622Z,79.55
2018-05-12T06:10:23.645Z,78.30
2018-05-12T06:11:23.670Z,77.73
2018-05-12T06:12:23.695Z,77.44
2018-05-12T06:13:23.720Z,77.63
2018-05-12T06:14:23.744Z,77.25
2018-05-12T06:15:23.768Z,78.11
2018-05-12T06:16:23.793Z,77.00
2018-05-12T06:17:23.817Z,76.32
2018-05-12T06:18:23.841Z,76.04
2018-05-12T06:19:23.867Z,75.07
2018-05-12T06:20:23.897Z,75.07
2018-05-12T06:21:23.916Z,76.04
2018-05-12T06:22:23.940Z,76.29
2018-05-12T06:23:23.967Z,76.57
2018-05-12T06:24:23.991Z,78.02
2018-05-12T06:25:24.015Z,77.09
2018-05-12T06:26:24.041Z,76.42
2018-05-12T06:27:24.070Z,75.17
2018-05-12T06:28:24.091Z,75.40
2018-05-12T06:29:24.115Z,74.19
2018-05-12T06:30:24.139Z,73.22
2018-05-12T06:31:24.165Z,72.74
2018-05-12T06:32:24.191Z,72.65
2018-05-12T06:33:24.219Z,72.74
2018-05-12T06:34:24.244Z,73.77
2018-05-12T06:35:24.266Z,73.77
2018-05-12T06:36:24.292Z,73.77
2018-05-12T06:37:24.318Z,73.03
2018-05-12T06:38:24.343Z,72.74
2018-05-12T06:39:24.369Z,72.07
2018-05-12T06:40:24.396Z,72.11
2018-05-12T06:41:24.421Z,71.34
2018-05-12T06:42:24.447Z,71.24
2018-05-12T06:43:24.474Z,71.04
2018-05-12T06:44:24.500Z,71.69
2018-05-12T06:45:24.525Z,72.74
2018-05-12T06:46:24.549Z,73.38
2018-05-12T06:47:24.576Z,73.47
2018-05-12T06:48:24.601Z,73.51
2018-05-12T06:49:24.628Z,72.94
2018-05-12T06:50:24.654Z,72.01
2018-05-12T06:51:24.680Z,70.98
2018-05-12T06:52:24.706Z,69.41
2018-05-12T06:53:24.732Z,71.24
2018-05-12T06:54:24.758Z,71.20
2018-05-12T06:55:24.785Z,71.40
2018-05-12T06:56:24.811Z,71.24
2018-05-12T06:57:24.840Z,70.37
2018-05-12T06:58:24.865Z,69.73
2018-05-12T06:59:24.891Z,69.54
2018-05-12T07:00:24.918Z,67.65
2018-05-12T07:01:25.021Z,66.97
2018-05-12T07:02:24.973Z,66.43
2018-05-12T07:03:24.996Z,66.04
2018-05-12T07:04:25.025Z,65.47
2018-05-12T07:05:25.053Z,65.56
2018-05-12T07:06:25.118Z,65.37
2018-05-12T07:07:25.104Z,65.37
2018-05-12T07:08:25.132Z,64.92
2018-05-12T07:09:25.159Z,64.63
2018-05-12T07:10:25.186Z,64.92
2018-05-12T07:11:25.213Z,65.85
2018-05-12T07:12:25.273Z,65.17
2018-05-12T07:13:25.268Z,66.88
2018-05-12T07:14:25.318Z,67.71
2018-05-12T07:15:25.325Z,68.38
2018-05-12T07:16:25.352Z,68.13
2018-05-12T07:17:25.380Z,66.82
2018-05-12T07:18:25.407Z,66.59
2018-05-12T07:19:25.528Z,66.43
2018-05-12T07:20:25.462Z,66.39
2018-05-12T07:21:25.490Z,66.49
2018-05-12T07:22:25.517Z,67.26
2018-05-12T07:23:25.545Z,66.78
2018-05-12T07:24:25.574Z,65.75
2018-05-12T07:25:25.607Z,65.40
2018-05-12T07:26:25.629Z,64.15
2018-05-12T07:27:25.657Z,63.40
2018-05-12T07:28:25.686Z,61.99
2018-05-12T07:29:25.715Z,62.18
2018-05-12T07:30:25.742Z,61.70
2018-05-12T07:31:25.771Z,61.31
2018-05-12T07:32:25.800Z,61.60
2018-05-12T07:33:25.829Z,61.22
2018-05-12T07:34:25.856Z,59.77
2018-05-12T07:35:25.885Z,59.58
2018-05-12T07:36:25.914Z,59.67
2018-05-12T07:37:25.943Z,60.93
2018-05-12T07:38:25.971Z,59.96
2018-05-12T07:39:25.999Z,60.16
2018-05-12T07:40:26.029Z,60.35
2018-05-12T07:41:26.059Z,59.48
2018-05-12T07:42:26.087Z,58.45
2018-05-12T07:43:26.115Z,57.70
2018-05-12T07:44:26.146Z,57.41
2018-05-12T07:45:26.177Z,58.67
2018-05-12T07:46:26.207Z,59.41
2018-05-12T07:47:26.233Z,59.22
2018-05-12T07:48:26.262Z,58.54
2018-05-12T07:49:26.292Z,57.96
2018-05-12T07:50:26.321Z,57.31
2018-05-12T07:51:26.360Z,56.70
2018-05-12T07:52:26.381Z,55.92
2018-05-12T07:53:26.412Z,56.40
2018-05-12T07:54:26.440Z,54.49
2018-05-12T07:55:26.470Z,54.43
2018-05-12T07:56:26.502Z,52.90
2018-05-12T07:57:26.531Z,52.03
2018-05-12T07:58:26.560Z,51.16
2018-05-12T07:59:26.590Z,50.87
2018-05-12T08:00:26.621Z,50.38
2018-05-12T08:01:26.652Z,49.73
2018-05-12T08:02:26.681Z,49.70
2018-05-12T08:03:26.787Z,49.07
2018-05-12T08:04:26.746Z,48.39
2018-05-12T08:05:26.774Z,48.39
2018-05-12T08:06:26.805Z,48.47
2018-05-12T08:07:26.835Z,48.10
2018-05-12T08:08:26.867Z,47.42
2018-05-12T08:09:26.899Z,47.91
2018-05-12T08:10:26.930Z,48.22
2018-05-12T08:11:26.961Z,47.81
2018-05-12T08:12:26.993Z,48.30
2018-05-12T08:13:27.025Z,48.39
2018-05-12T08:14:27.055Z,48.18
2018-05-12T08:15:27.087Z,48.08
2018-05-12T08:16:27.120Z,47.40
2018-05-12T08:17:27.155Z,46.72
2018-05-12T08:18:27.182Z,46.82
2018-05-12T08:19:27.216Z,47.13
2018-05-12T08:20:27.247Z,45.61
2018-05-12T08:21:27.279Z,44.90
2018-05-12T08:22:27.311Z,44.83
2018-05-12T08:23:27.344Z,44.95
2018-05-12T08:24:27.381Z,46.19
2018-05-12T08:25:27.408Z,46.21
2018-05-12T08:26:27.440Z,46.41
2018-05-12T08:27:27.475Z,46.21
2018-05-12T08:28:27.506Z,46.09
2018-05-12T08:29:27.538Z,45.43
2018-05-12T08:30:27.568Z,44.95
2018-05-12T08:31:27.604Z,44.37
2018-05-12T08:32:27.634Z,45.43
2018-05-12T08:33:27.667Z,45.82
2018-05-12T08:34:27.698Z,46.98
2018-05-12T08:35:27.732Z,46.14
2018-05-12T08:36:27.765Z,45.77
2018-05-12T08:37:27.797Z,45.75
2018-05-12T08:38:27.830Z,45.84
2018-05-12T08:39:27.861Z,45.38
2018-05-12T08:40:27.899Z,44.24
2018-05-12T08:41:27.930Z,44.21
2018-05-12T08:42:27.963Z,43.12
2018-05-12T08:43:27.993Z,43.80
2018-05-12T08:44:28.027Z,42.85
2018-05-12T08:45:28.059Z,42.87
2018-05-12T08:46:28.092Z,42.00
2018-05-12T08:47:28.124Z,41.71
2018-05-12T08:48:28.157Z,41.01
2018-05-12T08:49:28.191Z,41.88
2018-05-12T08:50:28.223Z,42.74
2018-05-12T08:51:28.256Z,43.44
2018-05-12T08:52:28.292Z,42.87
2018-05-12T08:53:28.323Z,40.83
2018-05-12T08:54:28.356Z,38.98
2018-05-12T08:55:28.388Z,37.34
2018-05-12T08:56:28.421Z,38.40
2018-05-12T08:57:28.455Z,37.34
2018-05-12T08:58:28.487Z,36.34
2018-05-12T08:59:28.521Z,36.65
2018-05-12T09:00:28.554Z,37.02
2018-05-12T09:01:28.673Z,36.05
2018-05-12T09:02:28.621Z,35.10
2018-05-12T09:03:28.654Z,34.72
2018-05-12T09:04:28.689Z,34.05
2018-05-12T09:05:28.720Z,34.53
2018-05-12T09:06:28.752Z,34.72
2018-05-12T09:07:28.785Z,35.80
2018-05-12T09:08:28.819Z,35.70
2018-05-12T09:09:28.852Z,35.50
2018-05-12T09:10:28.884Z,35.81
2018-05-12T09:11:28.919Z,36.41
2018-05-12T09:12:28.952Z,36.90
2018-05-12T09:13:28.985Z,37.27
2018-05-12T09:14:29.018Z,35.93
2018-05-12T09:15:29.052Z,35.63
2018-05-12T09:16:29.089Z,35.91
2018-05-12T09:17:29.120Z,36.30
2018-05-12T09:18:29.151Z,37.04
2018-05-12T09:19:29.184Z,37.90
2018-05-12T09:20:29.219Z,39.03
2018-05-12T09:21:29.252Z,39.59
2018-05-12T09:22:29.286Z,40.83
2018-05-12T09:23:29.318Z,40.58
2018-05-12T09:24:29.351Z,39.14
2018-05-12T09:25:29.447Z,37.78
2018-05-12T09:26:29.417Z,37.22
2018-05-12T09:27:29.451Z,36.73
2018-05-12T09:28:29.484Z,37.22
2018-05-12T09:29:29.518Z,37.34
2018-05-12T09:30:29.550Z,37.72
2018-05-12T09:31:29.583Z,37.43
2018-05-12T09:32:29.616Z,36.26
2018-05-12T09:33:29.652Z,35.89
2018-05-12T09:34:29.681Z,35.89
2018-05-12T09:35:29.716Z,35.61
2018-05-12T09:36:29.750Z,35.42
2018-05-12T09:37:29.780Z,35.61
2018-05-12T09:38:29.814Z,36.22
2018-05-12T09:39:29.873Z,35.83
2018-05-12T09:40:29.880Z,36.10
2018-05-12T09:41:29.913Z,37.16
2018-05-12T09:42:30.057Z,38.57
2018-05-12T09:43:29.978Z,39.65
2018-05-12T09:44:30.013Z,41.14
2018-05-12T09:45:30.046Z,42.91
2018-05-12T09:46:30.079Z,41.88
2018-05-12T09:47:30.110Z,40.83
2018-05-12T09:48:30.145Z,39.78
2018-05-12T09:49:30.177Z,37.56
2018-05-12T09:50:30.209Z,37.58
2018-05-12T09:51:30.246Z,37.39
2018-05-12T09:52:30.282Z,37.19
2018-05-12T09:53:30.309Z,37.04
2018-05-12T09:54:30.341Z,36.37
2018-05-12T09:55:30.374Z,33.92
2018-05-12T09:56:30.409Z,33.25
2018-05-12T09:57:30.441Z,32.78
2018-05-12T09:58:30.475Z,31.70
2018-05-12T09:59:30.541Z,31.31
2018-05-12T10:00:30.546Z,32.65
2018-05-12T10:01:30.575Z,33.49
2018-05-12T10:02:30.606Z,33.88
2018-05-12T10:03:30.644Z,33.49
2018-05-12T10:04:30.673Z,32.45
2018-05-12T10:05:30.709Z,32.19
2018-05-12T10:06:30.744Z,31.90
2018-05-12T10:07:30.775Z,31.62
2018-05-12T10:08:30.808Z,30.93
2018-05-12T10:09:30.856Z,31.25
2018-05-12T10:10:30.874Z,35.66
2018-05-12T10:11:30.908Z,40.54
2018-05-12T10:12:30.941Z,41.66
2018-05-12T10:13:30.976Z,42.05
2018-05-12T10:14:31.008Z,41.83
2018-05-12T10:15:31.110Z,40.48
2018-05-12T10:16:31.074Z,40.86
2018-05-12T10:17:31.107Z,42.13
2018-05-12T10:18:31.139Z,42.51
2018-05-12T10:19:31.278Z,43.87
2018-05-12T10:20:31.205Z,44.27
2018-05-12T10:21:31.236Z,41.80
2018-05-12T10:22:31.268Z,41.58
2018-05-12T10:23:31.317Z,42.17
2018-05-12T10:24:31.332Z,39.32
2018-05-12T10:25:31.365Z,35.00
2018-05-12T10:26:31.395Z,32.60
2018-05-12T10:27:31.428Z,31.92
2018-05-12T10:28:31.459Z,32.20
2018-05-12T10:29:31.494Z,32.59
2018-05-12T10:30:31.522Z,33.62
2018-05-12T10:31:31.555Z,32.59
2018-05-12T10:32:31.587Z,32.21
2018-05-12T10:33:31.617Z,32.10
2018-05-12T10:34:31.652Z,32.49
2018-05-12T10:35:31.679Z,32.86
2018-05-12T10:36:31.712Z,34.09
2018-05-12T10:37:31.743Z,35.43
2018-05-12T10:38:31.775Z,35.22
2018-05-12T10:39:31.806Z,36.06
2018-05-12T10:40:31.838Z,37.61
2018-05-12T10:41:31.871Z,38.73
2018-05-12T10:42:31.901Z,39.78
2018-05-12T10:43:31.933Z,39.37
2018-05-12T10:44:31.965Z,40.05
2018-05-12T10:45:31.996Z,39.70
2018-05-12T10:46:32.027Z,37.63
2018-05-12T10:47:32.057Z,36.22
2018-05-12T10:48:32.093Z,35.00
2018-05-12T10:49:32.120Z,33.48
2018-05-12T10:50:32.149Z,33.78
2018-05-12T10:51:32.180Z,32.70
2018-05-12T10:52:32.213Z,32.68
2018-05-12T10:53:32.244Z,33.25
2018-05-12T10:54:32.274Z,34.48
2018-05-12T10:55:32.306Z,34.61
2018-05-12T10:56:32.336Z,34.35
2018-05-12T10:57:32.368Z,32.79
2018-05-12T10:58:32.398Z,32.04
2018-05-12T10:59:32.430Z,31.27
2018-05-12T11:00:32.464Z,30.50
2018-05-12T11:01:32.493Z,29.74
2018-05-12T11:02:32.523Z,29.47
2018-05-12T11:03:32.555Z,29.38
2018-05-12T11:04:32.585Z,28.89
2018-05-12T11:05:32.618Z,29.83
2018-05-12T11:06:32.648Z,30.33
2018-05-12T11:07:32.682Z,30.25
2018-05-12T11:08:32.711Z,29.39
2018-05-12T11:09:32.748Z,29.29
2018-05-12T11:10:32.773Z,29.02
2018-05-12T11:11:32.807Z,28.85
2018-05-12T11:12:32.838Z,28.64
2018-05-12T11:13:32.869Z,28.83
2018-05-12T11:14:32.900Z,28.54
2018-05-12T11:15:32.931Z,28.08
2018-05-12T11:16:32.965Z,27.50
2018-05-12T11:17:32.995Z,27.59
2018-05-12T11:18:33.027Z,28.85
2018-05-12T11:19:33.059Z,29.03
2018-05-12T11:20:33.093Z,29.88
2018-05-12T11:21:33.144Z,30.83
2018-05-12T11:22:33.157Z,31.13
2018-05-12T11:23:33.187Z,31.48
2018-05-12T11:24:33.219Z,31.57
2018-05-12T11:25:33.251Z,32.62
2018-05-12T11:26:33.335Z,32.73
2018-05-12T11:27:33.315Z,31.97
2018-05-12T11:28:33.352Z,31.24
2018-05-12T11:29:33.379Z,29.97
2018-05-12T11:30:33.411Z,30.14
2018-05-12T11:31:33.443Z,30.52
2018-05-12T11:32:33.475Z,30.43
2018-05-12T11:33:33.510Z,31.21
2018-05-12T11:34:33.538Z,31.29
2018-05-12T11:35:33.570Z,31.21
2018-05-12T11:36:33.603Z,31.70
2018-05-12T11:37:33.636Z,31.79
2018-05-12T11:38:33.666Z,32.67
2018-05-12T11:39:33.698Z,32.20
2018-05-12T11:40:33.730Z,31.71
2018-05-12T11:41:33.762Z,31.34
2018-05-12T11:42:33.793Z,31.22
2018-05-12T11:43:33.825Z,31.13
2018-05-12T11:44:33.909Z,30.55
2018-05-12T11:45:33.889Z,30.18
2018-05-12T11:46:33.920Z,30.15
2018-05-12T11:47:33.953Z,32.71
2018-05-12T11:48:33.993Z,33.94
2018-05-12T11:49:34.016Z,34.99
2018-05-12T11:50:34.047Z,35.78
2018-05-12T11:51:34.083Z,35.14
2018-05-12T11:52:34.111Z,34.01
2018-05-12T11:53:34.143Z,33.04
2018-05-12T11:54:34.173Z,33.06
2018-05-12T11:55:34.212Z,32.60
2018-05-12T11:56:34.237Z,31.63
2018-05-12T11:57:34.268Z,31.45
2018-05-12T11:58:34.300Z,32.08
2018-05-12T11:59:34.331Z,33.54
2018-05-12T12:00:34.362Z,32.79
2018-05-12T12:01:34.396Z,30.75
2018-05-12T12:02:34.458Z,31.41
2018-05-12T12:03:34.458Z,31.22
2018-05-12T12:04:34.488Z,31.24
2018-05-12T12:05:34.519Z,30.67
2018-05-12T12:06:34.553Z,30.47
2018-05-12T12:07:34.580Z,31.03
2018-05-12T12:08:34.614Z,31.50
2018-05-12T12:09:34.644Z,32.64
2018-05-12T12:10:34.678Z,33.86
2018-05-12T12:11:34.706Z,34.25
2018-05-12T12:12:34.741Z,34.08
2018-05-12T12:13:34.769Z,33.78
2018-05-12T12:14:34.801Z,34.30
2018-05-12T12:15:34.834Z,32.67
2018-05-12T12:16:34.942Z,31.79
2018-05-12T12:17:34.896Z,32.08
2018-05-12T12:18:34.925Z,31.43
2018-05-12T12:19:34.956Z,31.24
2018-05-12T12:20:34.988Z,31.61
2018-05-12T12:21:35.019Z,31.32
2018-05-12T12:22:35.057Z,31.90
2018-05-12T12:23:35.082Z,31.30
2018-05-12T12:24:35.113Z,31.38
2018-05-12T12:25:35.144Z,32.18
2018-05-12T12:26:35.175Z,31.22
2018-05-12T12:27:35.207Z,31.03
2018-05-12T12:28:35.237Z,31.34
2018-05-12T12:29:35.269Z,31.11
2018-05-12T12:30:35.299Z,31.88
2018-05-12T12:31:35.332Z,31.77
2018-05-12T12:32:35.367Z,31.66
2018-05-12T12:33:35.393Z,31.66
2018-05-12T12:34:35.424Z,31.85
2018-05-12T12:35:35.456Z,32.73
2018-05-12T12:36:35.486Z,32.34
2018-05-12T12:37:35.517Z,32.13
2018-05-12T12:38:35.546Z,32.50
2018-05-12T12:39:35.578Z,32.89
2018-05-12T12:40:35.608Z,33.47
2018-05-12T12:41:35.639Z,33.47
2018-05-12T12:42:35.669Z,32.52
2018-05-12T12:43:35.700Z,32.44
2018-05-12T12:44:35.732Z,32.24
2018-05-12T12:45:35.762Z,31.94
2018-05-12T12:46:35.795Z,32.71
2018-05-12T12:47:35.822Z,32.91
2018-05-12T12:48:35.851Z,33.11
2018-05-12T12:49:35.882Z,32.52
2018-05-12T12:50:35.911Z,33.67
2018-05-12T12:51:35.947Z,33.47
2018-05-12T12:52:35.972Z,33.57
2018-05-12T12:53:36.002Z,33.38
2018-05-12T12:54:36.031Z,32.44